Flight Track Log - Related Links

Times and Time Zones

All times are in EDT time to prevent confusion due to time zone crossing. See the N211RN flight status page for this flight to view local times or setup timezone preferences in your user account.

Time Position Orientation Groundspeed Altitude Reporting Facility
EDT Latitude Longitude Course Direction KTS MPH feet Rate Location/Type
Sun 06:03:37 AM 40.3872 -79.8875 290° West 219 252 3,700  Level Cleveland Center
Sun 06:04:37 AM 40.4072 -79.9586 290° West 222 255 8,500 3,818 Climbing Cleveland Center
Sun 06:05:38 AM 40.4161 -80.0389 278° West 268 308 11,400 2,678 Climbing Cleveland Center
Sun 06:06:38 AM 40.4419 -80.1381 289° West 288 331 13,900 2,950 Climbing Cleveland Center
Sun 06:07:38 AM 40.4692 -80.2489 288° West 313 360 17,300 2,826 Climbing Cleveland Center
Sun 06:08:39 AM 40.4961 -80.3653 287° West 318 366 19,600 2,430 Climbing Cleveland Center
Sun 06:09:39 AM 40.5244 -80.4836 288° West 337 388 22,200 2,650 Climbing Cleveland Center
Sun 06:10:39 AM 40.5514 -80.5992 287° West 334 384 24,900 2,529 Climbing Cleveland Center
Sun 06:11:40 AM 40.5758 -80.7156 285° West 333 383 27,300 2,132 Climbing Cleveland Center
Sun 06:12:40 AM 40.6003 -80.8361 285° West 338 389 29,200 1,884 Climbing Cleveland Center
Sun 06:13:41 AM 40.6247 -80.9564 285° West 341 392 31,100 1,934 Climbing Cleveland Center
Sun 06:14:41 AM 40.6486 -81.0814 284° West 344 396 33,100 1,950 Climbing Cleveland Center
Sun 06:15:41 AM 40.6722 -81.2019 285° West 338 389 35,000 1,438 Climbing Cleveland Center
Sun 06:16:42 AM 40.6978 -81.3244 285° West 341 392 36,000 496 Climbing Cleveland Center
Sun 06:17:42 AM 40.7231 -81.4550 284° West 358 412 36,000  Level Cleveland Center
Sun 06:18:43 AM 40.7483 -81.5850 284° West 361 415 36,000  Level Cleveland Center
Sun 06:19:43 AM 40.7739 -81.7147 285° West 361 415 36,000  Level Cleveland Center
Sun 06:20:44 AM 40.7992 -81.8461 284° West 361 415 36,000  Level Cleveland Center
Sun 06:21:44 AM 40.8242 -81.9756 284° West 362 417 36,000  Level Cleveland Center
Sun 06:22:45 AM 40.8492 -82.1058 284° West 361 415 36,000  Level Cleveland Center
Sun 06:23:45 AM 40.8739 -82.2367 284° West 361 415 36,000  Level Cleveland Center
Sun 06:24:46 AM 40.8983 -82.3672 284° West 361 415 36,000  Level Cleveland Center
Sun 06:25:46 AM 40.9236 -82.4994 284° West 364 419 36,000  Level Cleveland Center
Sun 06:26:47 AM 40.9483 -82.6317 284° West 365 420 36,000  Level Cleveland Center
Sun 06:27:47 AM 40.9728 -82.7647 284° West 367 422 36,000  Level Cleveland Center
Sun 06:28:48 AM 40.9981 -82.8975 284° West 368 423 36,000  Level Cleveland Center
Sun 06:29:48 AM 41.0219 -83.0314 283° West 368 423 36,000  Level Cleveland Center
Sun 06:30:49 AM 41.0464 -83.1633 284° West 368 423 36,000  Level Cleveland Center
Sun 06:31:50 AM 41.0686 -83.2928 283° West 367 422 36,000  Level Cleveland Center
Sun 06:32:50 AM 41.0928 -83.4250 284° West 367 422 36,000  Level Cleveland Center
Sun 06:33:51 AM 41.1139 -83.5436 283° West 367 422 36,000  Level Cleveland Center
Sun 06:34:51 AM 41.1414 -83.7022 283° West 367 422 36,000  Level Cleveland Center
Sun 06:35:52 AM 41.1647 -83.8328 283° West 367 422 36,000  Level Cleveland Center
Sun 06:36:53 AM 41.1861 -83.9583 283° West 367 422 36,000  Level Cleveland Center
Sun 06:37:53 AM 41.2092 -84.0897 283° West 367 422 36,000 -99 Level Cleveland Center
Sun 06:38:54 AM 41.2319 -84.2203 283° West 367 422 35,800 -1,033 Descending Cleveland Center
Sun 06:39:55 AM 41.2533 -84.3511 282° West 364 419 33,900 -1,884 Descending Cleveland Center
Sun 06:40:55 AM 41.2761 -84.4817 283° West 364 419 32,000 -1,736 Descending Cleveland Center
Sun 06:41:56 AM 41.2978 -84.6128 282° West 363 418 30,400 -1,188 Descending Cleveland Center
Sun 06:42:36 AM 41.3122 -84.7186 280° West 364 419 30,000 -238 Descending Chicago Center
Sun 06:43:37 AM 41.3233 -84.8533 276° West 365 420 30,000 -496 Level Chicago Center
Sun 06:44:37 AM 41.3364 -84.9886 277° West 366 421 29,000 -1,200 Descending Chicago Center
Sun 06:45:37 AM 41.3489 -85.1278 277° West 373 429 27,600 -1,450 Descending Chicago Center
Sun 06:46:37 AM 41.3614 -85.2664 277° West 374 430 26,100 -1,339 Descending Chicago Center
Sun 06:47:38 AM 41.3722 -85.3797 277° West 377 434 24,900 -1,041 Descending Chicago Center
Sun 06:48:38 AM 41.3842 -85.5219 276° West 379 436 24,000 -550 Descending Chicago Center
Sun 06:49:38 AM 41.3958 -85.6581 277° West 374 430 23,800 -595 Descending Chicago Center
Sun 06:50:39 AM 41.4078 -85.7919 277° West 363 418 22,800 -1,537 Descending Chicago Center
Sun 06:51:39 AM 41.4192 -85.9181 277° West 345 397 20,700 -2,150 Descending Chicago Center
Sun 06:52:39 AM 41.4289 -86.0453 276° West 346 398 18,500 -2,250 Descending Chicago Center
Sun 06:53:39 AM 41.4389 -86.1650 276° West 330 380 16,200 -2,281 Descending Chicago Center
Sun 06:54:40 AM 41.4478 -86.2792 276° West 312 359 13,900 -2,083 Descending Chicago Center
Sun 06:55:40 AM 41.4572 -86.3869 277° West 296 341 12,000 -1,650 Descending Chicago Center
Sun 06:56:40 AM 41.4664 -86.4989 276° West 300 345 10,600 -992 Descending Chicago Center
Sun 06:57:41 AM 41.4742 -86.6042 276° West 287 330 10,000 -545 Descending Chicago Center
Sun 06:58:41 AM 41.4847 -86.7172 277° West 251 289 9,500 -800 Descending Chicago Center
Sun 06:59:41 AM 41.4922 -86.8033 277° West 236 272 8,400 -1,091 Descending Chicago Center
Sun 07:00:42 AM 41.4986 -86.8942 275° West 244 281 7,300 -1,091 Descending Chicago Center
Sun 07:01:42 AM 41.5050 -86.9958 275° West 255 293 6,200 -650 Descending Chicago Center
Sun 07:02:42 AM 41.5119 -87.0936 275° West 265 305 6,000 -99 Descending Chicago Center
Sun 07:03:43 AM 41.5239 -87.1914 279° West 268 308 6,000 -99 Level Chicago Center
Sun 07:04:43 AM 41.5539 -87.2767 295° West 253 291 5,800 -843 Descending Chicago Center
Sun 07:05:44 AM 41.5811 -87.3522 296° West 228 262 4,300 -893 Descending Chicago Center
Sun 07:06:44 AM 41.6089 -87.4311 295° West 233 268 4,000 -150 Descending Chicago Center
Sun 07:07:44 AM 41.6383 -87.5136 296° West 244 281 4,000  Level Chicago Center
Sun 07:08:45 AM 41.6617 -87.5797 295° West 195 224 4,000 -446 Level Chicago Center
Sun 07:09:45 AM 41.6972 -87.6289 314° West 185 213 3,100 -992 Descending Chicago Center
Sun 07:10:46 AM 41.7336 -87.6817 313° West 181 208 2,000 -942 Descending Chicago Center
Sun 07:11:46 AM 41.7600 -87.7175 315° West 132 152 1,200 -645 Descending Chicago Center
Sun 07:12:47 AM 41.7831 -87.7511 313° West 124 143 700 -492 Descending Chicago Center

Login

Don't have an account? Register now (free) for customized features, flight alerts, and more!